createdAt,value
2022-12-03T00:00:59.244Z,15.00
2022-12-03T00:05:02.240Z,13.50
2022-12-03T00:09:05.908Z,12.25
2022-12-03T00:13:09.107Z,12.17
2022-12-03T00:17:13.457Z,12.27
2022-12-03T00:21:16.621Z,14.98
2022-12-03T00:25:19.644Z,12.80
2022-12-03T00:29:22.599Z,13.87
2022-12-03T00:33:27.007Z,13.13
2022-12-03T00:37:30.071Z,12.68
2022-12-03T00:41:33.059Z,12.67
2022-12-03T00:45:36.071Z,11.43
2022-12-03T00:49:41.287Z,13.80
2022-12-03T00:53:44.489Z,16.63
2022-12-03T00:57:47.485Z,13.15
2022-12-03T01:01:50.573Z,14.87
2022-12-03T01:05:56.324Z,14.43
2022-12-03T01:09:59.421Z,16.08
2022-12-03T01:14:02.449Z,13.52
2022-12-03T01:18:05.606Z,14.63
2022-12-03T01:22:09.956Z,15.00
2022-12-03T01:26:13.028Z,16.40
2022-12-03T01:30:16.339Z,12.98
2022-12-03T01:34:18.393Z,11.23
2022-12-03T01:38:22.847Z,16.50
2022-12-03T01:42:27.638Z,15.30
2022-12-03T01:46:42.056Z,14.80
2022-12-03T01:50:46.407Z,11.57
2022-12-03T01:54:54.900Z,13.77
2022-12-03T01:58:58.205Z,12.90
2022-12-03T02:03:03.467Z,13.05
2022-12-03T02:07:26.068Z,12.23
2022-12-03T02:11:34.515Z,9.65
2022-12-03T02:15:40.221Z,12.13
2022-12-03T02:19:43.436Z,11.25
2022-12-03T02:23:59.492Z,11.60
2022-12-03T02:28:06.992Z,12.63
2022-12-03T02:32:10.013Z,11.05
2022-12-03T02:36:13.792Z,10.48
2022-12-03T02:40:21.278Z,10.60
2022-12-03T02:44:25.728Z,12.60
2022-12-03T02:48:33.503Z,11.25
2022-12-03T02:52:37.069Z,11.50
2022-12-03T02:56:40.120Z,12.07
2022-12-03T03:00:45.117Z,10.93
2022-12-03T03:04:48.732Z,10.10
2022-12-03T03:08:52.231Z,12.27
2022-12-03T03:12:57.176Z,13.25
2022-12-03T03:17:01.760Z,10.88
2022-12-03T03:21:05.819Z,11.50
2022-12-03T03:25:11.939Z,10.57
2022-12-03T03:29:15.435Z,14.82
2022-12-03T03:33:20.260Z,13.32
2022-12-03T03:37:23.627Z,12.43
2022-12-03T03:41:27.917Z,10.65
2022-12-03T03:45:31.022Z,12.45
2022-12-03T03:49:35.689Z,14.52
2022-12-03T03:53:39.983Z,11.85
2022-12-03T03:57:43.508Z,14.52
2022-12-03T04:01:46.731Z,13.90
2022-12-03T04:05:51.372Z,12.90
2022-12-03T04:09:54.372Z,10.98
2022-12-03T04:13:56.385Z,13.15
2022-12-03T04:18:16.769Z,12.40
2022-12-03T04:22:38.841Z,10.68
2022-12-03T04:27:00.366Z,10.18
2022-12-03T04:31:23.711Z,13.50
2022-12-03T04:35:43.751Z,11.75
2022-12-03T04:39:48.431Z,14.15
2022-12-03T04:44:05.249Z,13.18
2022-12-03T04:48:08.250Z,15.13
2022-12-03T04:52:12.860Z,13.68
2022-12-03T04:56:17.381Z,16.30
2022-12-03T05:00:20.909Z,17.52
2022-12-03T05:04:24.203Z,16.17
2022-12-03T05:08:27.197Z,13.18
2022-12-03T05:12:31.547Z,16.48
2022-12-03T05:16:34.812Z,17.55
2022-12-03T05:20:47.103Z,17.17
2022-12-03T05:24:54.497Z,18.00
2022-12-03T05:28:59.088Z,19.42
2022-12-03T05:33:02.194Z,15.77
2022-12-03T05:37:05.234Z,17.45
2022-12-03T05:41:28.931Z,17.20
2022-12-03T05:45:36.404Z,15.77
2022-12-03T05:49:39.413Z,17.48
2022-12-03T05:53:42.567Z,18.90
2022-12-03T05:57:46.366Z,16.25
2022-12-03T06:01:50.724Z,18.52
2022-12-03T06:05:53.954Z,18.40
2022-12-03T06:09:56.996Z,16.75
2022-12-03T06:13:59.948Z,18.55
2022-12-03T06:18:04.419Z,17.50
2022-12-03T06:22:07.485Z,18.27
2022-12-03T06:26:10.672Z,15.98
2022-12-03T06:30:15.473Z,17.15
2022-12-03T06:34:19.898Z,13.90
2022-12-03T06:38:23.413Z,13.77
2022-12-03T06:42:26.412Z,15.40
2022-12-03T06:46:29.516Z,13.95
2022-12-03T06:50:34.132Z,15.70
2022-12-03T06:54:37.088Z,16.65
2022-12-03T06:58:40.026Z,14.88
2022-12-03T07:02:44.657Z,16.37
2022-12-03T07:06:51.029Z,17.30
2022-12-03T07:10:54.053Z,16.67
2022-12-03T07:14:57.357Z,14.65
2022-12-03T07:19:00.663Z,16.77
2022-12-03T07:23:05.078Z,15.80
2022-12-03T07:27:08.116Z,12.25
2022-12-03T07:31:11.181Z,13.73
2022-12-03T07:35:14.850Z,12.65
2022-12-03T07:39:19.290Z,17.15
2022-12-03T07:43:22.275Z,15.23
2022-12-03T07:47:25.501Z,16.67
2022-12-03T07:51:32.169Z,17.15
2022-12-03T07:55:36.993Z,16.30
2022-12-03T07:59:40.154Z,15.98
2022-12-03T08:03:45.453Z,15.50
2022-12-03T08:07:48.683Z,18.02
2022-12-03T08:11:53.379Z,16.73
2022-12-03T08:15:57.085Z,15.82
2022-12-03T08:20:00.403Z,17.08
2022-12-03T08:24:14.679Z,15.77
2022-12-03T08:28:21.654Z,16.83
2022-12-03T08:32:25.344Z,18.35
2022-12-03T08:36:31.919Z,18.23
2022-12-03T08:40:36.500Z,14.65
2022-12-03T08:44:42.532Z,15.82
2022-12-03T08:48:48.993Z,16.08
2022-12-03T08:52:54.265Z,15.93
2022-12-03T08:56:57.728Z,14.05
2022-12-03T09:01:17.492Z,16.33
2022-12-03T09:05:23.284Z,17.10
2022-12-03T09:09:26.647Z,17.23
2022-12-03T09:13:30.579Z,17.77
2022-12-03T09:17:34.968Z,19.20
2022-12-03T09:21:38.001Z,18.08
2022-12-03T09:25:40.963Z,20.60
2022-12-03T09:29:43.963Z,20.20
2022-12-03T09:33:48.390Z,18.40
2022-12-03T09:37:51.458Z,22.90
2022-12-03T09:41:56.377Z,19.48
2022-12-03T09:45:59.654Z,20.33
2022-12-03T09:50:04.827Z,22.48
2022-12-03T09:54:08.628Z,18.63
2022-12-03T09:58:13.663Z,19.38
2022-12-03T10:02:22.328Z,22.00
2022-12-03T10:06:26.696Z,18.38
2022-12-03T10:10:30.935Z,22.25
2022-12-03T10:14:33.991Z,16.40
2022-12-03T10:18:41.571Z,19.30
2022-12-03T10:22:48.728Z,23.80
2022-12-03T10:26:56.640Z,16.98
2022-12-03T10:31:00.509Z,17.67
2022-12-03T10:35:12.043Z,17.83
2022-12-03T10:39:17.894Z,17.90
2022-12-03T10:43:26.307Z,19.15
2022-12-03T10:47:29.628Z,19.02
2022-12-03T10:51:32.836Z,19.98
2022-12-03T10:55:40.779Z,19.40
2022-12-03T10:59:44.208Z,24.52
2022-12-03T11:03:47.688Z,23.40
2022-12-03T11:07:51.325Z,24.75
2022-12-03T11:11:56.048Z,25.48
2022-12-03T11:16:00.234Z,19.27
2022-12-03T11:20:03.456Z,20.45
2022-12-03T11:24:27.451Z,22.50
2022-12-03T11:28:56.655Z,20.30
2022-12-03T11:33:03.065Z,22.45
2022-12-03T11:37:24.912Z,23.30
2022-12-03T11:41:37.116Z,21.80
2022-12-03T11:45:41.545Z,21.38
2022-12-03T11:49:49.266Z,22.85
2022-12-03T11:53:54.092Z,25.55
2022-12-03T11:57:59.463Z,26.65
2022-12-03T12:02:21.121Z,26.55
2022-12-03T12:06:24.130Z,24.35
2022-12-03T12:10:41.958Z,25.40
2022-12-03T12:14:46.081Z,23.48
2022-12-03T12:18:55.135Z,25.10
2022-12-03T12:23:23.993Z,28.05
2022-12-03T12:27:33.101Z,24.67
2022-12-03T12:31:36.232Z,28.58
2022-12-03T12:35:39.332Z,25.85
2022-12-03T12:39:44.058Z,32.10
2022-12-03T12:43:47.271Z,28.02
2022-12-03T12:47:57.322Z,25.90
2022-12-03T12:52:01.235Z,24.52
2022-12-03T12:56:12.511Z,29.92
2022-12-03T13:00:20.843Z,35.10
2022-12-03T13:04:25.220Z,26.05
2022-12-03T13:08:31.673Z,34.47
2022-12-03T13:12:37.991Z,31.10
2022-12-03T13:16:41.246Z,30.90
2022-12-03T13:20:44.295Z,31.75
2022-12-03T13:24:50.659Z,33.03
2022-12-03T13:28:57.864Z,30.55
2022-12-03T13:33:02.118Z,32.53
2022-12-03T13:37:13.414Z,30.42
2022-12-03T13:41:37.458Z,34.47
2022-12-03T13:45:44.816Z,31.08
2022-12-03T13:49:53.765Z,30.33
2022-12-03T13:53:59.156Z,31.50
2022-12-03T13:58:02.171Z,35.65
2022-12-03T14:02:06.570Z,28.63
2022-12-03T14:06:09.663Z,30.52
2022-12-03T14:10:13.654Z,36.35
2022-12-03T14:14:16.964Z,33.45
2022-12-03T14:18:21.393Z,34.38
2022-12-03T14:22:25.457Z,31.67
2022-12-03T14:26:28.493Z,37.60
2022-12-03T14:30:31.486Z,29.75
2022-12-03T14:34:35.832Z,34.53
2022-12-03T14:38:39.091Z,28.60
2022-12-03T14:42:42.071Z,31.95
2022-12-03T14:46:45.056Z,23.38
2022-12-03T14:50:49.463Z,32.33
2022-12-03T14:54:52.474Z,28.65
2022-12-03T14:58:55.428Z,22.83
2022-12-03T15:02:58.517Z,25.83
2022-12-03T15:07:05.008Z,25.50
2022-12-03T15:11:08.141Z,22.65
2022-12-03T15:15:12.015Z,22.73
2022-12-03T15:19:15.245Z,24.58
2022-12-03T15:23:19.622Z,22.63
2022-12-03T15:27:22.625Z,22.85
2022-12-03T15:31:25.894Z,20.98
2022-12-03T15:35:29.229Z,24.92
2022-12-03T15:39:36.419Z,22.70
2022-12-03T15:43:39.475Z,23.00
2022-12-03T15:47:42.504Z,24.13
2022-12-03T15:51:45.593Z,26.15
2022-12-03T15:55:49.940Z,21.10
2022-12-03T15:59:53.115Z,22.08
2022-12-03T16:03:56.454Z,21.45
2022-12-03T16:07:59.516Z,21.40
2022-12-03T16:12:04.354Z,27.27
2022-12-03T16:16:07.687Z,21.92
2022-12-03T16:20:11.247Z,19.77
2022-12-03T16:24:14.338Z,20.10
2022-12-03T16:28:19.037Z,21.95
2022-12-03T16:32:21.991Z,22.30
2022-12-03T16:36:25.110Z,24.58
2022-12-03T16:40:28.155Z,21.73
2022-12-03T16:44:54.104Z,22.48
2022-12-03T16:48:58.771Z,22.85
2022-12-03T16:53:01.740Z,21.52
2022-12-03T16:57:05.172Z,26.95
2022-12-03T17:01:10.005Z,22.63
2022-12-03T17:05:13.116Z,22.33
2022-12-03T17:09:16.211Z,27.25
2022-12-03T17:13:19.860Z,26.75
2022-12-03T17:17:24.276Z,25.58
2022-12-03T17:21:30.871Z,30.92
2022-12-03T17:25:36.967Z,24.42
2022-12-03T17:29:40.038Z,24.05
2022-12-03T17:33:45.527Z,29.63
2022-12-03T17:37:48.797Z,26.67
2022-12-03T17:41:53.537Z,27.75
2022-12-03T17:45:56.620Z,27.77
2022-12-03T17:50:00.963Z,29.58
2022-12-03T17:54:04.013Z,29.80
2022-12-03T17:58:07.487Z,33.80
2022-12-03T18:02:10.508Z,27.10
2022-12-03T18:06:14.914Z,34.00
2022-12-03T18:10:18.528Z,27.92
2022-12-03T18:14:21.910Z,26.20
2022-12-03T18:18:24.936Z,31.63
2022-12-03T18:22:29.901Z,29.95
2022-12-03T18:26:33.170Z,30.20
2022-12-03T18:30:36.268Z,29.02
2022-12-03T18:34:39.285Z,31.35
2022-12-03T18:38:43.782Z,29.73
2022-12-03T18:42:47.150Z,29.63
2022-12-03T18:46:54.705Z,30.52
2022-12-03T18:50:57.917Z,25.48
2022-12-03T18:55:02.352Z,27.65
2022-12-03T18:59:06.623Z,25.20
2022-12-03T19:03:09.723Z,27.45
2022-12-03T19:07:13.281Z,25.92
2022-12-03T19:11:17.673Z,27.13
2022-12-03T19:15:21.071Z,24.60
2022-12-03T19:19:27.240Z,28.60
2022-12-03T19:23:30.242Z,24.48
2022-12-03T19:27:34.687Z,26.42
2022-12-03T19:31:38.132Z,27.00
2022-12-03T19:35:41.239Z,31.17
2022-12-03T19:39:44.247Z,26.25
2022-12-03T19:43:52.171Z,29.30
2022-12-03T19:47:55.178Z,27.95
2022-12-03T19:51:58.160Z,24.67
2022-12-03T19:56:02.777Z,25.05
2022-12-03T20:00:09.114Z,27.45
2022-12-03T20:04:15.236Z,28.58
2022-12-03T20:08:18.434Z,31.38
2022-12-03T20:12:21.571Z,28.73
2022-12-03T20:16:27.536Z,28.63
2022-12-03T20:20:30.625Z,30.23
2022-12-03T20:24:33.707Z,30.52
2022-12-03T20:28:37.176Z,26.95
2022-12-03T20:32:45.341Z,33.42
2022-12-03T20:36:48.713Z,26.77
2022-12-03T20:40:51.773Z,30.13
2022-12-03T20:44:55.334Z,26.05
2022-12-03T20:49:00.064Z,26.30
2022-12-03T20:53:23.649Z,28.10
2022-12-03T20:57:26.084Z,27.08
2022-12-03T21:01:29.576Z,29.50
2022-12-03T21:05:33.921Z,26.15
2022-12-03T21:09:37.136Z,30.63
2022-12-03T21:13:41.305Z,23.55
2022-12-03T21:17:44.341Z,23.02
2022-12-03T21:21:48.742Z,30.65
2022-12-03T21:25:52.871Z,24.58
2022-12-03T21:29:56.229Z,29.52
2022-12-03T21:34:00.005Z,33.47
2022-12-03T21:38:05.007Z,27.35
2022-12-03T21:42:34.718Z,27.80
2022-12-03T21:47:12.688Z,29.25
2022-12-03T21:51:01.502Z,28.00
2022-12-03T21:55:06.537Z,29.70
2022-12-03T21:59:09.694Z,32.88
2022-12-03T22:03:12.843Z,28.80
2022-12-03T22:07:15.949Z,30.23
2022-12-03T22:11:22.461Z,30.52
2022-12-03T22:15:25.552Z,30.48
2022-12-03T22:19:28.773Z,28.85
2022-12-03T22:23:32.526Z,26.67
2022-12-03T22:27:37.228Z,27.25
2022-12-03T22:31:40.292Z,27.75
2022-12-03T22:35:43.336Z,26.35
2022-12-03T22:39:46.284Z,23.58
2022-12-03T22:43:51.095Z,28.02
2022-12-03T22:47:54.032Z,32.97
2022-12-03T22:51:57.039Z,30.95
2022-12-03T22:56:01.439Z,32.15
2022-12-03T23:00:11.142Z,29.33
2022-12-03T23:04:14.506Z,29.98
2022-12-03T23:08:20.256Z,31.15
2022-12-03T23:12:23.405Z,31.98
2022-12-03T23:16:31.032Z,33.22
2022-12-03T23:20:34.107Z,31.40
2022-12-03T23:24:37.734Z,31.90
2022-12-03T23:28:43.042Z,35.78
2022-12-03T23:32:47.554Z,30.58
2022-12-03T23:36:50.571Z,31.20
2022-12-03T23:40:53.884Z,33.50
2022-12-03T23:44:56.901Z,33.28
2022-12-03T23:49:01.279Z,32.65
2022-12-03T23:53:04.459Z,31.25
2022-12-03T23:57:07.445Z,33.40
